地図

経路データ

SID SEASON NUMBER BASIN SUBBASIN NAME ISO_TIME NATURE LAT LON WMO_WIND WMO_PRES WMO_AGENCY TRACK_TYPE DIST2LAND LANDFALL IFLAG USA_AGENCY USA_ATCF_ID USA_LAT USA_LON USA_RECORD USA_STATUS USA_WIND USA_PRES USA_SSHS USA_R34_NE USA_R34_SE USA_R34_SW USA_R34_NW USA_R50_NE USA_R50_SE USA_R50_SW USA_R50_NW USA_R64_NE USA_R64_SE USA_R64_SW USA_R64_NW USA_POCI USA_ROCI USA_RMW USA_EYE TOKYO_LAT TOKYO_LON TOKYO_GRADE TOKYO_WIND TOKYO_PRES TOKYO_R50_DIR TOKYO_R50_LONG TOKYO_R50_SHORT TOKYO_R30_DIR TOKYO_R30_LONG TOKYO_R30_SHORT TOKYO_LAND CMA_LAT CMA_LON CMA_CAT CMA_WIND CMA_PRES HKO_LAT HKO_LON HKO_CAT HKO_WIND HKO_PRES NEWDELHI_LAT NEWDELHI_LON NEWDELHI_GRADE NEWDELHI_WIND NEWDELHI_PRES NEWDELHI_CI NEWDELHI_DP NEWDELHI_POCI REUNION_LAT REUNION_LON REUNION_TYPE REUNION_WIND REUNION_PRES REUNION_TNUM REUNION_CI REUNION_RMW REUNION_R34_NE REUNION_R34_SE REUNION_R34_SW REUNION_R34_NW REUNION_R50_NE REUNION_R50_SE REUNION_R50_SW REUNION_R50_NW REUNION_R64_NE REUNION_R64_SE REUNION_R64_SW REUNION_R64_NW BOM_LAT BOM_LON BOM_TYPE BOM_WIND BOM_PRES BOM_TNUM BOM_CI BOM_RMW BOM_R34_NE BOM_R34_SE BOM_R34_SW BOM_R34_NW BOM_R50_NE BOM_R50_SE BOM_R50_SW BOM_R50_NW BOM_R64_NE BOM_R64_SE BOM_R64_SW BOM_R64_NW BOM_ROCI BOM_POCI BOM_EYE BOM_POS_METHOD BOM_PRES_METHOD NADI_LAT NADI_LON NADI_CAT NADI_WIND NADI_PRES WELLINGTON_LAT WELLINGTON_LON WELLINGTON_WIND WELLINGTON_PRES DS824_LAT DS824_LON DS824_STAGE DS824_WIND DS824_PRES TD9636_LAT TD9636_LON TD9636_STAGE TD9636_WIND TD9636_PRES TD9635_LAT TD9635_LON TD9635_WIND TD9635_PRES TD9635_ROCI NEUMANN_LAT NEUMANN_LON NEUMANN_CLASS NEUMANN_WIND NEUMANN_PRES MLC_LAT MLC_LON MLC_CLASS MLC_WIND MLC_PRES USA_GUST BOM_GUST BOM_GUST_PER REUNION_GUST REUNION_GUST_PER USA_SEAHGT USA_SEARAD_NE USA_SEARAD_SE USA_SEARAD_SW USA_SEARAD_NW STORM_SPEED STORM_DIR
1871001S12088 1871 1 SI MM NOT_NAMED 1871-01-01 06:00:00 NR -12.0000 87.7000 spur-split 1690 1690 __________O___ -1 -12.0000 87.7000 7 7 242
1871001S12088 1871 1 SI MM NOT_NAMED 1871-01-01 09:00:00 NR -12.1565 87.3954 spur-split 1730 1730 __________P___ -1 -12.1565 87.3954 7 7 242
1871001S12088 1871 1 SI MM NOT_NAMED 1871-01-01 12:00:00 NR -12.3202 87.0926 spur-split 1761 1761 __________P___ -1 -12.3202 87.0926 7 7 240
1871001S12088 1871 1 SI MM NOT_NAMED 1871-01-01 15:00:00 NR -12.4989 86.7934 spur-split 1801 1801 __________P___ -1 -12.4989 86.7934 7 7 237
1871001S12088 1871 1 SI MM NOT_NAMED 1871-01-01 18:00:00 NR -12.7000 86.5000 spur-split 1840 1840 __________O___ -1 -12.7000 86.5000 7 7 233
1871001S12088 1871 1 SI MM NOT_NAMED 1871-01-01 21:00:00 NR -12.9268 86.2154 spur-split 1879 1879 __________P___ -1 -12.9268 86.2154 7 7 229
1871001S12088 1871 1 SI MM NOT_NAMED 1871-01-02 00:00:00 NR -13.1650 85.9477 spur-split 1926 1926 __________P___ -1 -13.1650 85.9477 7 7 227
1871001S12088 1871 1 SI MM NOT_NAMED 1871-01-02 03:00:00 NR -13.3956 85.7061 spur-split 1957 1957 __________P___ -1 -13.3956 85.7061 7 6 225
1871001S12088 1871 1 SI MM NOT_NAMED 1871-01-02 06:00:00 NR -13.6000 85.5000 spur-split 1988 1988 __________O___ -1 -13.6000 85.5000 7 5 225
1871001S12088 1871 1 SI MM NOT_NAMED 1871-01-02 09:00:00 NR -13.7495 85.3388 spur-split 2011 2011 __________P___ -1 -13.7495 85.3388 7 4 226
1871001S12088 1871 1 SI MM NOT_NAMED 1871-01-02 12:00:00 NR -13.8723 85.2122 spur-split 2034 2034 __________P___ -1 -13.8723 85.2122 7 3 224
1871001S12088 1871 1 SI MM NOT_NAMED 1871-01-02 15:00:00 NR -13.9839 85.1045 spur-split 2050 2050 __________P___ -1 -13.9839 85.1045 7 3 222
1871001S12088 1871 1 SI MM NOT_NAMED 1871-01-02 18:00:00 NR -14.1000 85.0000 spur-split 2065 2065 __________O___ -1 -14.1000 85.0000 7 3 221
1871001S12088 1871 1 SI MM NOT_NAMED 1871-01-02 21:00:00 NR -14.2428 84.8750 spur-split 2081 2081 __________P___ -1 -14.2428 84.8750 7 4 220
1871001S12088 1871 1 SI MM NOT_NAMED 1871-01-03 00:00:00 NR -14.3925 84.7500 spur-split 2112 2112 __________P___ -1 -14.3925 84.7500 7 4 219
1871001S12088 1871 1 SI MM NOT_NAMED 1871-01-03 03:00:00 NR -14.5459 84.6250 spur-split 2127 2127 __________P___ -1 -14.5459 84.6250 7 4 218
1871001S12088 1871 1 SI MM NOT_NAMED 1871-01-03 06:00:00 NR -14.7000 84.5000 spur-split 2150 2150 __________O___ -1 -14.7000 84.5000 7 4 220
1871001S12088 1871 1 SI MM NOT_NAMED 1871-01-03 09:00:00 NR -14.8419 84.3668 spur-split 2166 2166 __________P___ -1 -14.8419 84.3668 7 4 222
1871001S12088 1871 1 SI MM NOT_NAMED 1871-01-03 12:00:00 NR -14.9850 84.2350 spur-split 2196 2196 __________P___ -1 -14.9850 84.2350 7 4 220
1871001S12088 1871 1 SI MM NOT_NAMED 1871-01-03 15:00:00 NR -15.1356 84.1106 spur-split 2212 2212 __________P___ -1 -15.1356 84.1106 7 4 216
1871001S12088 1871 1 SI MM NOT_NAMED 1871-01-03 18:00:00 NR -15.3000 84.0000 spur-split 2235 2235 __________O___ -1 -15.3000 84.0000 7 4 209
1871001S12088 1871 1 SI MM NOT_NAMED 1871-01-03 21:00:00 NR -15.4734 83.9146 spur-split 2258 2258 __________P___ -1 -15.4734 83.9146 7 4 203
1871001S12088 1871 1 SI MM NOT_NAMED 1871-01-04 00:00:00 NR -15.6624 83.8423 spur-split 2281 2281 __________P___ -1 -15.6624 83.8423 7 4 199
1871001S12088 1871 1 SI MM NOT_NAMED 1871-01-04 03:00:00 NR -15.8703 83.7739 spur-split 2296 2296 __________P___ -1 -15.8703 83.7739 7 5 197
1871001S12088 1871 1 SI MM NOT_NAMED 1871-01-04 06:00:00 NR -16.1000 83.7000 spur-split 2319 2319 __________O___ -1 -16.1000 83.7000 7 5 199
1871001S12088 1871 1 SI MM NOT_NAMED 1871-01-04 09:00:00 NR -16.3372 83.6031 spur-split 2342 2342 __________P___ -1 -16.3372 83.6031 7 5 201
1871001S12088 1871 1 SI MM NOT_NAMED 1871-01-04 12:00:00 NR -16.5975 83.5000 spur-split 2372 2372 __________P___ -1 -16.5975 83.5000 7 6 200
1871001S12088 1871 1 SI MM NOT_NAMED 1871-01-04 15:00:00 NR -16.8841 83.3969 spur-split 2403 2403 __________P___ -1 -16.8841 83.3969 7 6 198
1871001S12088 1871 1 SI MM NOT_NAMED 1871-01-04 18:00:00 NR -17.2000 83.3000 spur-split 2434 2434 __________O___ -1 -17.2000 83.3000 7 7 195
1871001S12088 1871 1 SI MM NOT_NAMED 1871-01-04 21:00:00 NR -17.5544 83.2057 spur-split 2473 2473 __________P___ -1 -17.5544 83.2057 7 8 193
1871001S12088 1871 1 SI MM NOT_NAMED 1871-01-05 00:00:00 NR -17.9350 83.1202 spur-split 2504 2504 __________P___ -1 -17.9350 83.1202 7 8 191
1871001S12088 1871 1 SI MM NOT_NAMED 1871-01-05 03:00:00 NR -18.3231 83.0495 spur-split 2543 2543 __________P___ -1 -18.3231 83.0495 7 8 188
1871001S12088 1871 1 SI MM NOT_NAMED 1871-01-05 06:00:00 NR -18.7000 83.0000 spur-split 2575 2575 __________O___ -1 -18.7000 83.0000 7 7 185
1871001S12088 1871 1 SI MM NOT_NAMED 1871-01-05 09:00:00 NR -19.0515 82.9742 spur-split 2607 2607 __________P___ -1 -19.0515 82.9742 7 7 183
1871001S12088 1871 1 SI MM NOT_NAMED 1871-01-05 12:00:00 NR -19.3875 82.9698 spur-split 2631 2631 __________P___ -1 -19.3875 82.9698 7 7 178
1871001S12088 1871 1 SI MM NOT_NAMED 1871-01-05 15:00:00 NR -19.7047 82.9805 spur-split 2631 2628 __________P___ -1 -19.7047 82.9805 7 6 176
1871001S12088 1871 1 SI MM NOT_NAMED 1871-01-05 18:00:00 NR -20.0000 83.0000 spur-split 2628 2625 __________O___ -1 -20.0000 83.0000 7 6 175
1871001S12088 1871 1 SI MM NOT_NAMED 1871-01-05 21:00:00 NR -20.2719 83.0229 spur-split 2625 2623 __________P___ -1 -20.2719 83.0229 7 5 176
1871001S12088 1871 1 SI MM NOT_NAMED 1871-01-06 00:00:00 NR -20.5250 83.0475 spur-split 2623 2623 __________P___ -1 -20.5250 83.0475 7 5 175
1871001S12088 1871 1 SI MM NOT_NAMED 1871-01-06 03:00:00 NR -20.7656 83.0734 spur-split 2631 2630 __________P___ -1 -20.7656 83.0734 7 5 173
1871001S12088 1871 1 SI MM NOT_NAMED 1871-01-06 06:00:00 NR -21.0000 83.1000 spur-split 2630 __________O___ -1 -21.0000 83.1000 7 5 0

IBTrACS Databaseについて

本データベースは、米国NOAAが公開する1842年以降の世界の熱帯低気圧のベストトラックデータアーカイブInternational Best Track Archive for Climate Stewardship (IBTrACS)を、ウェブで閲覧しやすい形式に変換したものです。

最終更新日:2021-10-08